Badger — WDH3307 — position and weather

sailwx.info

Track history (hours):
 
Tides and Currents Weather Stations Pressure Air Temp Water Temp Dewpoint Dewpoint Depression Visibility Wind Speed Wind Dir Waves Ship Positions

Badger

Owner: Alliance Vessel Leasing LLC, Larose, LA. More information available from US FCC via Universal Licensing System and Coast Guard Vessel Documentation Center.

Last reported at 2018-Feb-23 22:58 UTC. Time now 2018-Feb-24 00:17 UTC.
Position N 29°47' W 092°09'.

Length 39 m; draft 3 m.

Type: Cargo ship. MMSI: 367606390.

Date/timePositionNaut miles runAvg speedWind from/ knotsBaromVisibWave heightAir tempDewpointWater temp
2018-Feb-23 22:58N 29°47' W 092°09'0 0.0
2018-Feb-23 22:20N 29°47' W 092°09'0 0.0
2018-Feb-23 21:58N 29°47' W 092°09'0 0.0
2018-Feb-23 21:30N 29°47' W 092°09'0 0.0
2018-Feb-23 21:00N 29°47' W 092°09'0 0.0
2018-Feb-23 20:30N 29°47' W 092°09'0 0.0
2018-Feb-23 20:00N 29°47' W 092°09'0 0.0
2018-Feb-23 19:30N 29°47' W 092°09'0 0.0
2018-Feb-23 19:00N 29°47' W 092°09'0 0.0
2018-Feb-23 18:28N 29°47' W 092°09'0 0.0
2018-Feb-23 18:00N 29°47' W 092°09'0 0.0
2018-Feb-23 17:30N 29°47' W 092°09'0 0.0
2018-Feb-23 17:00N 29°47' W 092°09'0 0.0
2018-Feb-23 16:30N 29°47' W 092°09'0 0.0
2018-Feb-23 16:00N 29°47' W 092°09'0 0.0
2018-Feb-23 15:20N 29°47' W 092°09'0 0.0
2018-Feb-23 15:00N 29°47' W 092°09'0 0.0
2018-Feb-23 14:30N 29°47' W 092°09'0 0.0
2018-Feb-23 14:00N 29°47' W 092°09'0 0.0
2018-Feb-23 13:28N 29°47' W 092°09'0 0.0
2018-Feb-23 13:00N 29°47' W 092°09'0 0.0
2018-Feb-23 12:30N 29°47' W 092°09'0 0.0
2018-Feb-23 12:00N 29°47' W 092°09'0 0.0
2018-Feb-23 11:30N 29°47' W 092°09'0 0.0
2018-Feb-23 10:58N 29°47' W 092°09'0 0.0
2018-Feb-23 10:30N 29°47' W 092°09'0 0.0
2018-Feb-23 09:58N 29°47' W 092°09'0 0.0
2018-Feb-23 09:30N 29°47' W 092°09'0 0.0
2018-Feb-23 09:00N 29°47' W 092°09'0 0.0
2018-Feb-23 08:30N 29°47' W 092°09'0 0.0
2018-Feb-23 07:58N 29°47' W 092°09'0 0.0
2018-Feb-23 07:28N 29°47' W 092°09'0 0.0
2018-Feb-23 06:58N 29°47' W 092°09'0 0.0
2018-Feb-23 06:30N 29°47' W 092°09'0 0.0
2018-Feb-23 06:00N 29°47' W 092°09'0 0.0
2018-Feb-23 05:30N 29°47' W 092°09'0 0.0
2018-Feb-23 05:00N 29°47' W 092°09'0 0.0
2018-Feb-23 04:22N 29°47' W 092°09'0 0.0
2018-Feb-23 04:00N 29°47' W 092°09'0 0.0
2018-Feb-23 03:30N 29°47' W 092°09'0 0.0
2018-Feb-23 03:00N 29°47' W 092°09'0 0.0
2018-Feb-23 02:28N 29°47' W 092°09'0 0.0
2018-Feb-23 02:00N 29°47' W 092°09'0 0.0
2018-Feb-23 01:30N 29°47' W 092°09'0 0.0
2018-Feb-23 00:56N 29°47' W 092°09'0 0.0
2018-Feb-23 00:30N 29°47' W 092°09'0 0.0
2018-Feb-22 23:48N 29°47' W 092°09'0 0.0
2018-Feb-22 23:28N 29°47' W 092°09'0 0.0
2018-Feb-22 23:00N 29°47' W 092°09'0 0.0
2018-Feb-22 22:30N 29°47' W 092°09'0 0.0
2018-Feb-22 21:59N 29°47' W 092°09'0 0.0
2018-Feb-22 21:27N 29°47' W 092°09'0 0.0
2018-Feb-22 20:57N 29°47' W 092°09'0 0.0
2018-Feb-22 20:30N 29°47' W 092°09'0 0.0
2018-Feb-22 20:00N 29°47' W 092°09'0 0.0
2018-Feb-22 19:30N 29°47' W 092°09'0 0.0
2018-Feb-22 19:00N 29°47' W 092°09'0 0.0
2018-Feb-22 18:28N 29°47' W 092°09'1 2.5
2018-Feb-22 18:00N 29°47' W 092°10'1 2.2
2018-Feb-22 17:30N 29°47' W 092°11'0 0.0
2018-Feb-22 17:00N 29°47' W 092°11'0 0.0
2018-Feb-22 16:30N 29°47' W 092°11'0 0.0
2018-Feb-22 16:00N 29°47' W 092°11'0 0.0
2018-Feb-22 15:30N 29°47' W 092°11'0 0.0
2018-Feb-22 14:58N 29°47' W 092°11'0 0.0
2018-Feb-22 14:30N 29°47' W 092°11'0 0.0
2018-Feb-22 14:00N 29°47' W 092°11'1 1.5
2018-Feb-22 13:30N 29°47' W 092°10'2 3.2
2018-Feb-22 13:00N 29°47' W 092°09'0 0.0
2018-Feb-22 12:28N 29°47' W 092°09'0 0.0
2018-Feb-22 11:58N 29°47' W 092°09'0 0.0
2018-Feb-22 11:30N 29°47' W 092°09'0 0.0
2018-Feb-22 11:00N 29°47' W 092°09'0 0.0
2018-Feb-22 10:30N 29°47' W 092°09'0 0.6
2018-Feb-22 10:00N 29°47' W 092°09'3 6.7
2018-Feb-22 09:30N 29°45' W 092°12'4 8.7
2018-Feb-22 09:00N 29°42' W 092°15'  
2018-Feb-19 16:13N 29°37' W 093°23'0 0.0
2018-Feb-19 15:49N 29°37' W 093°23'0 0.0
2018-Feb-19 15:22N 29°37' W 093°23'0 0.0
2018-Feb-18 03:18N 29°37' W 093°23'12 7.0
2018-Feb-18 01:34N 29°49' W 093°20'0 5.2
2018-Feb-18 01:30N 29°49' W 093°21'10 9.1
2018-Feb-18 00:24N 29°39' W 093°22'2 0.1
2018-Feb-16 10:47N 29°37' W 093°23'0 0.0
2018-Feb-16 08:59N 29°37' W 093°23'0 0.0
2018-Feb-16 08:25N 29°37' W 093°23'0 0.0
2018-Feb-16 04:19N 29°37' W 093°23'0 0.0
2018-Feb-16 03:58N 29°37' W 093°23'0 0.0
2018-Feb-16 03:27N 29°37' W 093°23'0 0.0
2018-Feb-16 02:58N 29°37' W 093°23'0 0.0
2018-Feb-16 02:23N 29°37' W 093°23'0 0.0
2018-Feb-16 02:00N 29°37' W 093°23'0 0.1
2018-Feb-16 01:29N 29°37' W 093°23'10 9.8
2018-Feb-16 00:28N 29°34' W 093°12'50 6.6
2018-Feb-15 16:56N 29°42' W 092°15'3 7.0
2018-Feb-15 16:30N 29°44' W 092°14'4 7.4
2018-Feb-15 16:00N 29°46' W 092°10'2 3.7
2018-Feb-15 15:31N 29°47' W 092°09'0 0.0
2018-Feb-15 15:00N 29°47' W 092°09'0 0.0
2018-Feb-15 14:30N 29°47' W 092°09'0 0.0
2018-Feb-15 14:00N 29°47' W 092°09'0 0.0
2018-Feb-15 13:30N 29°47' W 092°09'0 0.0
2018-Feb-15 12:59N 29°47' W 092°09'0 0.0
2018-Feb-15 12:26N 29°47' W 092°09'0 0.0
2018-Feb-15 12:00N 29°47' W 092°09'0 0.0
2018-Feb-15 11:30N 29°47' W 092°09'0 0.0
2018-Feb-15 10:59N 29°47' W 092°09'0 0.0
2018-Feb-15 10:29N 29°47' W 092°09'0 0.0
2018-Feb-15 09:59N 29°47' W 092°09'0 0.0
2018-Feb-15 09:29N 29°47' W 092°09'0 0.0
2018-Feb-15 08:59N 29°47' W 092°09'0 0.0
2018-Feb-15 08:29N 29°47' W 092°09'0 0.0
2018-Feb-15 07:59N 29°47' W 092°09'0 0.0
2018-Feb-15 07:29N 29°47' W 092°09'0 0.0
2018-Feb-15 06:59N 29°47' W 092°09'0 0.0
2018-Feb-15 06:20N 29°47' W 092°09'0 0.0
2018-Feb-15 05:59N 29°47' W 092°09'0 0.0
2018-Feb-15 05:29N 29°47' W 092°09'0 0.0
2018-Feb-15 04:56N 29°47' W 092°09'0 0.0
2018-Feb-15 04:29N 29°47' W 092°09'0 0.0
2018-Feb-15 03:59N 29°47' W 092°09'0 0.0
2018-Feb-15 03:29N 29°47' W 092°09'0 0.0
2018-Feb-15 02:50N 29°47' W 092°09'0 0.0
2018-Feb-15 02:23N 29°47' W 092°09'0 0.0
2018-Feb-15 01:59N 29°47' W 092°09'0 0.1
2018-Feb-15 01:28N 29°47' W 092°09'2 4.0
2018-Feb-15 01:00N 29°46' W 092°10'4 8.5
2018-Feb-15 00:30N 29°44' W 092°14'4 7.5
2018-Feb-15 00:00N 29°40' W 092°15'  
Track history (hours):
 
Tides and Currents Weather Stations Pressure Air Temp Water Temp Dewpoint Dewpoint Depression Visibility Wind Speed Wind Dir Waves Ship Positions

Badger

Owner: Alliance Vessel Leasing LLC, Larose, LA. More information available from US FCC via Universal Licensing System and Coast Guard Vessel Documentation Center.

Last reported at 2018-Feb-23 22:58 UTC. Time now 2018-Feb-24 00:17 UTC.
Position N 29°47' W 092°09'.

Length 39 m; draft 3 m.

Type: Cargo ship. MMSI: 367606390.

Date/timePositionNaut miles runAvg speedWind from/ knotsBaromVisibWave heightAir tempDewpointWater temp
2018-Feb-23 22:58N 29°47' W 092°09'0 0.0
2018-Feb-23 22:20N 29°47' W 092°09'0 0.0
2018-Feb-23 21:58N 29°47' W 092°09'0 0.0
2018-Feb-23 21:30N 29°47' W 092°09'0 0.0
2018-Feb-23 21:00N 29°47' W 092°09'0 0.0
2018-Feb-23 20:30N 29°47' W 092°09'0 0.0
2018-Feb-23 20:00N 29°47' W 092°09'0 0.0
2018-Feb-23 19:30N 29°47' W 092°09'0 0.0
2018-Feb-23 19:00N 29°47' W 092°09'0 0.0
2018-Feb-23 18:28N 29°47' W 092°09'0 0.0
2018-Feb-23 18:00N 29°47' W 092°09'0 0.0
2018-Feb-23 17:30N 29°47' W 092°09'0 0.0
2018-Feb-23 17:00N 29°47' W 092°09'0 0.0
2018-Feb-23 16:30N 29°47' W 092°09'0 0.0
2018-Feb-23 16:00N 29°47' W 092°09'0 0.0
2018-Feb-23 15:20N 29°47' W 092°09'0 0.0
2018-Feb-23 15:00N 29°47' W 092°09'0 0.0
2018-Feb-23 14:30N 29°47' W 092°09'0 0.0
2018-Feb-23 14:00N 29°47' W 092°09'0 0.0
2018-Feb-23 13:28N 29°47' W 092°09'0 0.0
2018-Feb-23 13:00N 29°47' W 092°09'0 0.0
2018-Feb-23 12:30N 29°47' W 092°09'0 0.0
2018-Feb-23 12:00N 29°47' W 092°09'0 0.0
2018-Feb-23 11:30N 29°47' W 092°09'0 0.0
2018-Feb-23 10:58N 29°47' W 092°09'0 0.0
2018-Feb-23 10:30N 29°47' W 092°09'0 0.0
2018-Feb-23 09:58N 29°47' W 092°09'0 0.0
2018-Feb-23 09:30N 29°47' W 092°09'0 0.0
2018-Feb-23 09:00N 29°47' W 092°09'0 0.0
2018-Feb-23 08:30N 29°47' W 092°09'0 0.0
2018-Feb-23 07:58N 29°47' W 092°09'0 0.0
2018-Feb-23 07:28N 29°47' W 092°09'0 0.0
2018-Feb-23 06:58N 29°47' W 092°09'0 0.0
2018-Feb-23 06:30N 29°47' W 092°09'0 0.0
2018-Feb-23 06:00N 29°47' W 092°09'0 0.0
2018-Feb-23 05:30N 29°47' W 092°09'0 0.0
2018-Feb-23 05:00N 29°47' W 092°09'0 0.0
2018-Feb-23 04:22N 29°47' W 092°09'0 0.0
2018-Feb-23 04:00N 29°47' W 092°09'0 0.0
2018-Feb-23 03:30N 29°47' W 092°09'0 0.0
2018-Feb-23 03:00N 29°47' W 092°09'0 0.0
2018-Feb-23 02:28N 29°47' W 092°09'0 0.0
2018-Feb-23 02:00N 29°47' W 092°09'0 0.0
2018-Feb-23 01:30N 29°47' W 092°09'0 0.0
2018-Feb-23 00:56N 29°47' W 092°09'0 0.0
2018-Feb-23 00:30N 29°47' W 092°09'0 0.0
2018-Feb-22 23:48N 29°47' W 092°09'0 0.0
2018-Feb-22 23:28N 29°47' W 092°09'0 0.0
2018-Feb-22 23:00N 29°47' W 092°09'0 0.0
2018-Feb-22 22:30N 29°47' W 092°09'0 0.0
2018-Feb-22 21:59N 29°47' W 092°09'0 0.0
2018-Feb-22 21:27N 29°47' W 092°09'0 0.0
2018-Feb-22 20:57N 29°47' W 092°09'0 0.0
2018-Feb-22 20:30N 29°47' W 092°09'0 0.0
2018-Feb-22 20:00N 29°47' W 092°09'0 0.0
2018-Feb-22 19:30N 29°47' W 092°09'0 0.0
2018-Feb-22 19:00N 29°47' W 092°09'0 0.0
2018-Feb-22 18:28N 29°47' W 092°09'1 2.5
2018-Feb-22 18:00N 29°47' W 092°10'1 2.2
2018-Feb-22 17:30N 29°47' W 092°11'0 0.0
2018-Feb-22 17:00N 29°47' W 092°11'0 0.0
2018-Feb-22 16:30N 29°47' W 092°11'0 0.0
2018-Feb-22 16:00N 29°47' W 092°11'0 0.0
2018-Feb-22 15:30N 29°47' W 092°11'0 0.0
2018-Feb-22 14:58N 29°47' W 092°11'0 0.0
2018-Feb-22 14:30N 29°47' W 092°11'0 0.0
2018-Feb-22 14:00N 29°47' W 092°11'1 1.5
2018-Feb-22 13:30N 29°47' W 092°10'2 3.2
2018-Feb-22 13:00N 29°47' W 092°09'0 0.0
2018-Feb-22 12:28N 29°47' W 092°09'0 0.0
2018-Feb-22 11:58N 29°47' W 092°09'0 0.0
2018-Feb-22 11:30N 29°47' W 092°09'0 0.0
2018-Feb-22 11:00N 29°47' W 092°09'0 0.0
2018-Feb-22 10:30N 29°47' W 092°09'0 0.6
2018-Feb-22 10:00N 29°47' W 092°09'3 6.7
2018-Feb-22 09:30N 29°45' W 092°12'4 8.7
2018-Feb-22 09:00N 29°42' W 092°15'  
2018-Feb-19 16:13N 29°37' W 093°23'0 0.0
2018-Feb-19 15:49N 29°37' W 093°23'0 0.0
2018-Feb-19 15:22N 29°37' W 093°23'0 0.0
2018-Feb-18 03:18N 29°37' W 093°23'12 7.0
2018-Feb-18 01:34N 29°49' W 093°20'0 5.2
2018-Feb-18 01:30N 29°49' W 093°21'10 9.1
2018-Feb-18 00:24N 29°39' W 093°22'2 0.1
2018-Feb-16 10:47N 29°37' W 093°23'0 0.0
2018-Feb-16 08:59N 29°37' W 093°23'0 0.0
2018-Feb-16 08:25N 29°37' W 093°23'0 0.0
2018-Feb-16 04:19N 29°37' W 093°23'0 0.0
2018-Feb-16 03:58N 29°37' W 093°23'0 0.0
2018-Feb-16 03:27N 29°37' W 093°23'0 0.0
2018-Feb-16 02:58N 29°37' W 093°23'0 0.0
2018-Feb-16 02:23N 29°37' W 093°23'0 0.0
2018-Feb-16 02:00N 29°37' W 093°23'0 0.1
2018-Feb-16 01:29N 29°37' W 093°23'10 9.8
2018-Feb-16 00:28N 29°34' W 093°12'50 6.6
2018-Feb-15 16:56N 29°42' W 092°15'3 7.0
2018-Feb-15 16:30N 29°44' W 092°14'4 7.4
2018-Feb-15 16:00N 29°46' W 092°10'2 3.7
2018-Feb-15 15:31N 29°47' W 092°09'0 0.0
2018-Feb-15 15:00N 29°47' W 092°09'0 0.0
2018-Feb-15 14:30N 29°47' W 092°09'0 0.0
2018-Feb-15 14:00N 29°47' W 092°09'0 0.0
2018-Feb-15 13:30N 29°47' W 092°09'0 0.0
2018-Feb-15 12:59N 29°47' W 092°09'0 0.0
2018-Feb-15 12:26N 29°47' W 092°09'0 0.0
2018-Feb-15 12:00N 29°47' W 092°09'0 0.0
2018-Feb-15 11:30N 29°47' W 092°09'0 0.0
2018-Feb-15 10:59N 29°47' W 092°09'0 0.0
2018-Feb-15 10:29N 29°47' W 092°09'0 0.0
2018-Feb-15 09:59N 29°47' W 092°09'0 0.0
2018-Feb-15 09:29N 29°47' W 092°09'0 0.0
2018-Feb-15 08:59N 29°47' W 092°09'0 0.0
2018-Feb-15 08:29N 29°47' W 092°09'0 0.0
2018-Feb-15 07:59N 29°47' W 092°09'0 0.0
2018-Feb-15 07:29N 29°47' W 092°09'0 0.0
2018-Feb-15 06:59N 29°47' W 092°09'0 0.0
2018-Feb-15 06:20N 29°47' W 092°09'0 0.0
2018-Feb-15 05:59N 29°47' W 092°09'0 0.0
2018-Feb-15 05:29N 29°47' W 092°09'0 0.0
2018-Feb-15 04:56N 29°47' W 092°09'0 0.0
2018-Feb-15 04:29N 29°47' W 092°09'0 0.0
2018-Feb-15 03:59N 29°47' W 092°09'0 0.0
2018-Feb-15 03:29N 29°47' W 092°09'0 0.0
2018-Feb-15 02:50N 29°47' W 092°09'0 0.0
2018-Feb-15 02:23N 29°47' W 092°09'0 0.0
2018-Feb-15 01:59N 29°47' W 092°09'0 0.1
2018-Feb-15 01:28N 29°47' W 092°09'2 4.0
2018-Feb-15 01:00N 29°46' W 092°10'4 8.5
2018-Feb-15 00:30N 29°44' W 092°14'4 7.5
2018-Feb-15 00:00N 29°40' W 092°15'  

Dump ship's entire track history